Etusivu
METAR-TAF:

METAR-TAF

Lentoasemat :

Comiso, Italia

Leveyspiiri: 36-59-30N, Pituuspiiri: 14-36-25E, korkeus merenpinnasta: 190 m

Tämänhetkinen sää

Tämä raportti tehtiin 21 minuuttia sitten, kello 13.20 UTC
Tuuli 9 kn etelästä/kaakosta, vaihdellen idän/kaakon ja lounaan välillä
Lämpötila 18°C
Kosteus 77%
Ilmanpaine 1011 hPa
Näkyvyys 10 km tai enemmän

METAR: LICB 281320Z AUTO 16009KT 120V220 9999 FEW036/// 18/14 Q1011

Aika: 14:41 (13:41 UTC)

Sääennuste

Tämä raportti tehtiin 2 tuntia ja 41 minuuttia sitten, kello 11.00 UTC
Ennuste voimassa 28. päivästä klo 12 UTC - 28. päivään klo 21 UTC
Tuuli 13 kn kaakosta
Näkyvyys 10 km tai enemmän
Hajonneita pilviä 3000 ft:n korkeudessa
Ajoittain
28. päivästä klo 12 UTC - 28. päivään klo 15 UTC
Näkyvyys: 4000 m
vesikuuroja
Ajoittain
28. päivästä klo 15 UTC - 28. päivään klo 18 UTC
Näkyvyys: 4000 m
ukkosmyrsky, sadetta

TAF: LICB 281100Z 2812/2821 13013KT 9999 BKN030 TEMPO 2812/2815 4000 SHRA TEMPO 2815/2818 4000 TSRA

Säähavainnot ja -ennusteet yli 4000 lentoasemalta (METAR- ja TAF-raportit).

Käytössä olevat sääasemat on merkitty karttaan keltaisilla ja punaisilla pisteillä.

Aseta hiiri pisteen päälle nähdäksesi sääaseman nimen.

Klikkaa sitten nähdäksesi säähavainnot ja -ennusteet.

Kartan vaihtaminen: klikkaa mustalla rastilla varustettuja vihreitä pisteitä, niin voit zoomata sisään; viivalla varustettua vihreää pistettä, niin voit zoomata ulos tai vihreitä nuolia, niin pääset viereisille kartoille.


METAR-TAF: